createdAt,value
2018-10-18T00:01:17.504Z,57.38
2018-10-18T00:03:45.771Z,58.53
2018-10-18T00:06:14.067Z,61.68
2018-10-18T00:08:42.224Z,59.98
2018-10-18T00:11:10.436Z,61.50
2018-10-18T00:13:38.714Z,61.53
2018-10-18T00:16:06.989Z,61.37
2018-10-18T00:18:35.263Z,61.00
2018-10-18T00:21:03.506Z,61.18
2018-10-18T00:23:31.824Z,59.65
2018-10-18T00:26:00.212Z,60.63
2018-10-18T00:28:28.439Z,60.50
2018-10-18T00:30:56.707Z,58.15
2018-10-18T00:33:24.917Z,59.88
2018-10-18T00:35:53.175Z,58.33
2018-10-18T00:38:21.406Z,58.70
2018-10-18T00:40:49.633Z,61.55
2018-10-18T00:43:17.923Z,60.30
2018-10-18T00:45:46.188Z,59.65
2018-10-18T00:48:14.465Z,59.40
2018-10-18T00:50:42.670Z,58.98
2018-10-18T00:53:10.862Z,60.58
2018-10-18T00:55:39.081Z,62.13
2018-10-18T00:58:07.348Z,58.73
2018-10-18T01:00:35.572Z,59.10
2018-10-18T01:03:03.788Z,60.80
2018-10-18T01:05:32.181Z,59.95
2018-10-18T01:08:00.467Z,61.77
2018-10-18T01:10:28.676Z,59.17
2018-10-18T01:12:56.942Z,57.20
2018-10-18T01:15:25.229Z,62.90
2018-10-18T01:17:53.478Z,62.90
2018-10-18T01:20:21.696Z,66.22
2018-10-18T01:22:50.001Z,63.95
2018-10-18T01:25:18.315Z,74.20
2018-10-18T01:27:46.563Z,66.17
2018-10-18T01:30:14.908Z,66.37
2018-10-18T01:32:43.113Z,63.13
2018-10-18T01:35:11.406Z,62.45
2018-10-18T01:37:39.625Z,61.80
2018-10-18T01:40:07.845Z,65.30
2018-10-18T01:42:36.144Z,65.75
2018-10-18T01:45:04.922Z,68.15
2018-10-18T01:47:33.200Z,64.67
2018-10-18T01:50:01.412Z,65.80
2018-10-18T01:52:29.615Z,65.87
2018-10-18T01:54:57.924Z,65.42
2018-10-18T01:57:26.125Z,64.92
2018-10-18T01:59:54.421Z,68.42
2018-10-18T02:02:22.668Z,67.67
2018-10-18T02:04:50.883Z,64.32
2018-10-18T02:07:19.103Z,65.10
2018-10-18T02:09:47.441Z,66.10
2018-10-18T02:12:15.761Z,64.75
2018-10-18T02:14:43.909Z,61.08
2018-10-18T02:17:12.161Z,61.18
2018-10-18T02:19:40.388Z,64.97
2018-10-18T02:22:08.711Z,64.80
2018-10-18T02:24:36.975Z,64.80
2018-10-18T02:27:05.313Z,63.15
2018-10-18T02:29:33.603Z,64.05
2018-10-18T02:32:01.877Z,64.12
2018-10-18T02:34:30.155Z,62.33
2018-10-18T02:36:58.345Z,63.40
2018-10-18T02:39:26.601Z,62.73
2018-10-18T02:41:54.866Z,66.75
2018-10-18T02:44:23.080Z,63.95
2018-10-18T02:46:51.339Z,62.20
2018-10-18T02:49:19.587Z,63.55
2018-10-18T02:51:47.813Z,62.90
2018-10-18T02:54:16.221Z,64.32
2018-10-18T02:56:44.454Z,65.28
2018-10-18T02:59:12.693Z,62.78
2018-10-18T03:01:40.939Z,61.68
2018-10-18T03:04:09.144Z,61.53
2018-10-18T03:06:37.378Z,64.35
2018-10-18T03:09:07.810Z,67.75
2018-10-18T03:11:36.053Z,65.87
2018-10-18T03:14:04.368Z,64.40
2018-10-18T03:16:32.640Z,65.50
2018-10-18T03:19:00.848Z,63.68
2018-10-18T03:21:29.076Z,62.55
2018-10-18T03:23:57.374Z,66.05
2018-10-18T03:26:25.564Z,67.62
2018-10-18T03:28:53.845Z,65.17
2018-10-18T03:31:22.036Z,66.50
2018-10-18T03:33:50.346Z,66.97
2018-10-18T03:36:18.684Z,68.15
2018-10-18T03:38:47.042Z,63.33
2018-10-18T03:41:15.367Z,64.27
2018-10-18T03:43:43.504Z,67.55
2018-10-18T03:46:11.785Z,64.20
2018-10-18T03:48:39.995Z,66.45
2018-10-18T03:51:08.279Z,68.07
2018-10-18T03:53:36.622Z,66.40
2018-10-18T03:56:05.197Z,65.63
2018-10-18T03:58:33.481Z,64.40
2018-10-18T04:01:01.743Z,66.70
2018-10-18T04:03:30.045Z,66.75
2018-10-18T04:05:59.021Z,69.77
2018-10-18T04:08:27.296Z,67.90
2018-10-18T04:10:55.549Z,70.15
2018-10-18T04:13:23.890Z,68.55
2018-10-18T04:15:52.062Z,66.45
2018-10-18T04:18:20.285Z,65.75
2018-10-18T04:20:48.514Z,64.50
2018-10-18T04:23:22.195Z,67.35
2018-10-18T04:25:50.438Z,67.78
2018-10-18T04:28:18.710Z,67.58
2018-10-18T04:30:46.877Z,68.33
2018-10-18T04:33:15.090Z,67.75
2018-10-18T04:35:43.402Z,65.40
2018-10-18T04:38:11.629Z,69.20
2018-10-18T04:40:39.893Z,68.07
2018-10-18T04:43:08.257Z,67.30
2018-10-18T04:45:36.475Z,67.42
2018-10-18T04:48:04.868Z,68.28
2018-10-18T04:50:33.021Z,66.67
2018-10-18T04:53:01.501Z,67.00
2018-10-18T04:55:29.967Z,65.05
2018-10-18T04:57:58.200Z,65.40
2018-10-18T05:00:26.437Z,69.95
2018-10-18T05:02:54.805Z,65.70
2018-10-18T05:05:34.381Z,66.75
2018-10-18T05:08:02.665Z,66.15
2018-10-18T05:10:31.009Z,65.28
2018-10-18T05:12:59.250Z,70.03
2018-10-18T05:15:27.499Z,67.25
2018-10-18T05:17:55.809Z,68.57
2018-10-18T05:20:24.041Z,69.55
2018-10-18T05:22:52.253Z,66.90
2018-10-18T05:25:20.873Z,69.90
2018-10-18T05:27:49.138Z,70.85
2018-10-18T05:30:17.800Z,69.25
2018-10-18T05:32:46.152Z,66.92
2018-10-18T05:35:14.780Z,67.08
2018-10-18T05:37:43.082Z,68.80
2018-10-18T05:40:11.312Z,72.97
2018-10-18T05:42:39.615Z,73.95
2018-10-18T05:45:08.409Z,73.52
2018-10-18T05:47:36.755Z,76.47
2018-10-18T05:50:06.139Z,69.60
2018-10-18T05:52:34.363Z,68.50
2018-10-18T05:55:02.710Z,70.70
2018-10-18T05:57:30.949Z,71.05
2018-10-18T05:59:59.310Z,68.47
2018-10-18T06:02:27.573Z,67.35
2018-10-18T06:04:55.925Z,68.33
2018-10-18T06:07:24.141Z,69.82
2018-10-18T06:09:52.494Z,66.82
2018-10-18T06:12:21.076Z,71.50
2018-10-18T06:14:49.358Z,73.10
2018-10-18T06:17:17.593Z,76.40
2018-10-18T06:19:45.926Z,71.80
2018-10-18T06:22:14.422Z,70.67
2018-10-18T06:24:42.832Z,75.47
2018-10-18T06:27:11.241Z,73.60
2018-10-18T06:29:39.512Z,79.45
2018-10-18T06:32:07.854Z,75.35
2018-10-18T06:34:36.137Z,81.32
2018-10-18T06:37:04.519Z,78.12
2018-10-18T06:39:32.876Z,72.60
2018-10-18T06:42:01.136Z,74.82
2018-10-18T06:44:29.463Z,71.00
2018-10-18T06:46:57.875Z,75.37
2018-10-18T06:49:26.090Z,76.75
2018-10-18T06:51:54.397Z,73.60
2018-10-18T06:54:22.659Z,77.25
2018-10-18T06:56:50.972Z,76.67
2018-10-18T06:59:19.208Z,81.40
2018-10-18T07:01:47.587Z,78.33
2018-10-18T07:04:15.917Z,75.47
2018-10-18T07:06:44.177Z,78.20
2018-10-18T07:09:12.587Z,78.00
2018-10-18T07:11:40.857Z,79.32
2018-10-18T07:14:09.101Z,73.70
2018-10-18T07:16:37.346Z,72.32
2018-10-18T07:19:05.774Z,71.62
2018-10-18T07:21:34.070Z,73.00
2018-10-18T07:24:02.426Z,74.35
2018-10-18T07:26:30.999Z,73.30
2018-10-18T07:28:59.281Z,71.37
2018-10-18T07:31:27.742Z,70.62
2018-10-18T07:33:56.068Z,70.90
2018-10-18T07:36:24.472Z,74.20
2018-10-18T07:38:52.757Z,77.75
2018-10-18T07:41:21.266Z,79.40
2018-10-18T07:43:49.428Z,76.30
2018-10-18T07:46:17.685Z,82.15
2018-10-18T07:48:45.990Z,84.25
2018-10-18T07:51:14.248Z,78.97
2018-10-18T07:53:42.583Z,78.20
2018-10-18T07:56:10.824Z,78.45
2018-10-18T07:58:39.189Z,76.70
2018-10-18T08:01:07.542Z,85.95
2018-10-18T08:03:35.828Z,81.30
2018-10-18T08:06:04.069Z,79.82
2018-10-18T08:08:32.376Z,85.50
2018-10-18T08:11:00.759Z,88.58
2018-10-18T08:13:28.994Z,86.82
2018-10-18T08:15:57.247Z,88.40
2018-10-18T08:18:25.635Z,93.73
2018-10-18T08:20:53.947Z,86.17
2018-10-18T08:23:22.215Z,89.03
2018-10-18T08:25:50.687Z,86.85
2018-10-18T08:28:19.112Z,85.85
2018-10-18T08:30:47.423Z,89.03
2018-10-18T08:33:15.771Z,87.05
2018-10-18T08:35:44.050Z,86.80
2018-10-18T08:38:12.417Z,89.47
2018-10-18T08:40:40.895Z,82.80
2018-10-18T08:43:09.383Z,84.75
2018-10-18T08:45:37.596Z,82.45
2018-10-18T08:48:06.853Z,83.60
2018-10-18T08:50:35.176Z,79.67
2018-10-18T08:53:03.444Z,79.72
2018-10-18T08:55:32.082Z,79.30
2018-10-18T08:58:00.393Z,77.08
2018-10-18T09:00:28.686Z,74.62
2018-10-18T09:02:56.976Z,73.92
2018-10-18T09:05:25.266Z,73.25
2018-10-18T09:07:53.612Z,74.90
2018-10-18T09:10:21.933Z,74.00
2018-10-18T09:12:50.222Z,69.22
2018-10-18T09:15:18.436Z,76.90
2018-10-18T09:17:46.734Z,78.72
2018-10-18T09:20:15.088Z,70.50
2018-10-18T09:22:43.407Z,73.70
2018-10-18T09:25:12.369Z,76.47
2018-10-18T09:27:40.968Z,75.05
2018-10-18T09:30:10.453Z,70.85
2018-10-18T09:32:38.747Z,71.50
2018-10-18T09:35:07.128Z,72.42
2018-10-18T09:37:36.248Z,73.45
2018-10-18T09:40:05.259Z,79.00
2018-10-18T09:42:33.553Z,77.30
2018-10-18T09:45:01.968Z,76.37
2018-10-18T09:47:30.335Z,75.45
2018-10-18T09:49:58.676Z,74.45
2018-10-18T09:52:26.911Z,74.97
2018-10-18T09:54:55.249Z,72.55
2018-10-18T09:57:23.541Z,73.00
2018-10-18T09:59:51.821Z,71.35
2018-10-18T10:02:25.641Z,73.00
2018-10-18T10:04:53.898Z,70.75
2018-10-18T10:07:22.147Z,67.35
2018-10-18T10:09:50.500Z,63.42
2018-10-18T10:12:19.057Z,59.58
2018-10-18T10:14:47.621Z,57.80
2018-10-18T10:17:15.910Z,55.05
2018-10-18T10:19:44.081Z,58.08
2018-10-18T10:22:12.369Z,53.43
2018-10-18T10:24:40.737Z,56.68
2018-10-18T10:27:09.929Z,53.50
2018-10-18T10:29:38.225Z,55.00
2018-10-18T10:32:06.489Z,54.98
2018-10-18T10:34:34.789Z,55.88
2018-10-18T10:37:03.136Z,56.33
2018-10-18T10:39:31.454Z,54.88
2018-10-18T10:41:59.727Z,51.87
2018-10-18T10:44:28.041Z,48.90
2018-10-18T10:46:56.284Z,52.20
2018-10-18T10:49:24.547Z,54.88
2018-10-18T10:51:52.798Z,51.75
2018-10-18T10:54:21.164Z,50.23
2018-10-18T10:56:49.382Z,50.03
2018-10-18T10:59:18.856Z,53.87
2018-10-18T11:01:47.644Z,53.90
2018-10-18T11:04:15.980Z,53.15
2018-10-18T11:06:44.234Z,52.60
2018-10-18T11:09:12.916Z,51.83
2018-10-18T11:11:41.133Z,52.35
2018-10-18T11:14:09.402Z,50.48
2018-10-18T11:16:37.644Z,50.78
2018-10-18T11:19:06.725Z,49.88
2018-10-18T11:21:35.072Z,49.13
2018-10-18T11:24:04.605Z,46.88
2018-10-18T11:26:32.887Z,46.80
2018-10-18T11:29:01.308Z,44.98
2018-10-18T11:31:29.780Z,47.90
2018-10-18T11:33:58.037Z,46.28
2018-10-18T11:36:26.417Z,44.53
2018-10-18T11:38:54.659Z,43.92
2018-10-18T11:41:22.962Z,43.80
2018-10-18T11:43:51.636Z,42.53
2018-10-18T11:46:19.852Z,41.42
2018-10-18T11:48:48.165Z,41.45
2018-10-18T11:51:16.490Z,43.50
2018-10-18T11:53:44.817Z,42.27
2018-10-18T11:56:13.375Z,41.65
2018-10-18T11:58:41.509Z,43.73
2018-10-18T12:01:09.912Z,42.62
2018-10-18T12:03:38.202Z,44.15
2018-10-18T12:06:06.565Z,43.42
2018-10-18T12:08:34.737Z,42.40
2018-10-18T12:11:03.081Z,39.80
2018-10-18T12:13:31.294Z,40.65
2018-10-18T12:15:59.538Z,41.98
2018-10-18T12:18:27.810Z,38.95
2018-10-18T12:20:56.138Z,38.83
2018-10-18T12:23:24.331Z,42.53
2018-10-18T12:25:52.650Z,40.92
2018-10-18T12:28:20.828Z,39.70
2018-10-18T12:30:49.040Z,38.30
2018-10-18T12:33:17.259Z,39.92
2018-10-18T12:35:45.556Z,41.10
2018-10-18T12:38:13.921Z,40.05
2018-10-18T12:40:42.188Z,37.38
2018-10-18T12:43:10.507Z,39.92
2018-10-18T12:45:38.817Z,39.95
2018-10-18T12:48:07.239Z,41.45
2018-10-18T12:50:35.464Z,40.17
2018-10-18T12:53:03.690Z,42.17
2018-10-18T12:55:31.923Z,40.55
2018-10-18T12:58:00.184Z,40.80
2018-10-18T13:00:28.550Z,39.63
2018-10-18T13:20:12.292Z,41.17
2018-10-18T13:22:40.737Z,40.43
2018-10-18T13:25:10.217Z,46.68
2018-10-18T13:27:38.824Z,45.08
2018-10-18T13:30:08.232Z,43.48
2018-10-18T13:32:36.535Z,50.77
2018-10-18T13:35:05.195Z,51.30
2018-10-18T13:37:33.630Z,49.70
2018-10-18T13:40:02.021Z,54.23
2018-10-18T13:42:30.332Z,49.67
2018-10-18T13:44:58.694Z,52.83
2018-10-18T13:47:27.552Z,63.70
2018-10-18T13:49:55.828Z,48.25
2018-10-18T13:52:24.199Z,48.85
2018-10-18T13:54:52.558Z,47.45
2018-10-18T13:57:21.049Z,47.10
2018-10-18T14:00:00.850Z,48.95
2018-10-18T14:02:29.294Z,47.65
2018-10-18T14:04:57.690Z,46.73
2018-10-18T14:07:26.394Z,48.15
2018-10-18T14:09:54.706Z,44.03
2018-10-18T14:12:23.144Z,45.80
2018-10-18T14:14:51.429Z,44.63
2018-10-18T14:17:19.881Z,44.98
2018-10-18T14:19:48.072Z,49.88
2018-10-18T14:22:16.366Z,48.75
2018-10-18T14:24:44.630Z,50.58
2018-10-18T14:27:12.924Z,56.42
2018-10-18T14:29:41.233Z,54.27
2018-10-18T14:32:09.561Z,50.80
2018-10-18T14:34:37.803Z,51.88
2018-10-18T14:37:06.109Z,53.60
2018-10-18T14:39:34.330Z,55.00
2018-10-18T14:42:02.748Z,52.75
2018-10-18T14:44:31.127Z,55.70
2018-10-18T14:46:59.210Z,56.10
2018-10-18T14:49:27.484Z,57.23
2018-10-18T14:51:55.856Z,59.27
2018-10-18T14:54:24.193Z,61.15
2018-10-18T14:56:52.402Z,53.90
2018-10-18T14:59:20.716Z,58.35
2018-10-18T15:01:49.284Z,60.20
2018-10-18T15:04:17.843Z,58.33
2018-10-18T15:06:46.043Z,58.10
2018-10-18T15:09:14.278Z,55.67
2018-10-18T15:11:42.505Z,54.38
2018-10-18T15:14:11.679Z,55.78
2018-10-18T15:16:39.961Z,58.30
2018-10-18T15:19:08.307Z,57.85
2018-10-18T15:21:36.564Z,58.07
2018-10-18T15:24:05.268Z,57.83
2018-10-18T15:26:33.699Z,57.95
2018-10-18T15:29:01.943Z,68.25
2018-10-18T15:31:30.314Z,62.50
2018-10-18T15:33:58.642Z,61.80
2018-10-18T15:36:26.977Z,63.25
2018-10-18T15:38:55.749Z,61.70
2018-10-18T15:41:24.007Z,65.17
2018-10-18T15:43:52.382Z,63.98
2018-10-18T15:46:21.456Z,63.68
2018-10-18T15:48:49.742Z,58.63
2018-10-18T15:51:18.228Z,60.38
2018-10-18T15:53:47.435Z,62.25
2018-10-18T15:56:16.130Z,61.00
2018-10-18T15:58:44.611Z,63.50
2018-10-18T16:01:12.966Z,62.30
2018-10-18T16:03:41.265Z,59.70
2018-10-18T16:06:09.756Z,60.60
2018-10-18T16:08:38.159Z,61.23
2018-10-18T16:11:06.554Z,60.05
2018-10-18T16:13:36.850Z,63.42
2018-10-18T16:16:06.236Z,60.00
2018-10-18T16:18:34.862Z,60.25
2018-10-18T16:21:03.343Z,56.45
2018-10-18T16:23:32.025Z,60.23
2018-10-18T16:26:00.437Z,57.27
2018-10-18T16:28:28.842Z,55.75
2018-10-18T16:30:57.321Z,52.83
2018-10-18T16:33:25.717Z,56.30
2018-10-18T16:35:54.242Z,56.25
2018-10-18T16:38:23.189Z,57.20
2018-10-18T16:40:51.647Z,57.83
2018-10-18T16:43:20.137Z,55.63
2018-10-18T16:45:48.417Z,57.53
2018-10-18T16:48:16.932Z,52.88
2018-10-18T16:50:45.143Z,58.83
2018-10-18T16:53:13.420Z,56.13
2018-10-18T16:55:41.782Z,56.48
2018-10-18T16:58:10.086Z,54.30
2018-10-18T17:00:38.327Z,54.80
2018-10-18T17:03:06.584Z,54.33
2018-10-18T17:05:34.901Z,49.10
2018-10-18T17:08:03.208Z,52.53
2018-10-18T17:10:31.437Z,45.35
2018-10-18T17:12:59.963Z,45.80
2018-10-18T17:15:28.263Z,45.88
2018-10-18T17:17:56.499Z,40.20
2018-10-18T17:20:25.076Z,40.80
2018-10-18T17:22:53.178Z,39.15
2018-10-18T17:25:21.468Z,34.00
2018-10-18T17:27:49.764Z,36.10
2018-10-18T17:30:18.114Z,35.23
2018-10-18T17:32:47.170Z,37.80
2018-10-18T17:35:15.703Z,30.68
2018-10-18T17:37:43.977Z,32.60
2018-10-18T17:40:12.368Z,25.48
2018-10-18T17:42:40.658Z,28.20
2018-10-18T17:45:10.348Z,27.05
2018-10-18T17:47:38.608Z,30.35
2018-10-18T17:50:07.249Z,29.07
2018-10-18T17:52:36.097Z,33.75
2018-10-18T17:55:05.134Z,36.93
2018-10-18T17:57:33.396Z,38.50
2018-10-18T18:00:01.882Z,42.80
2018-10-18T18:02:31.380Z,41.05
2018-10-18T18:04:59.875Z,41.92
2018-10-18T18:07:28.274Z,49.35
2018-10-18T18:09:56.914Z,42.40
2018-10-18T18:12:25.214Z,36.38
2018-10-18T18:14:53.785Z,38.55
2018-10-18T18:17:22.094Z,36.77
2018-10-18T18:19:50.862Z,37.97
2018-10-18T18:22:19.204Z,36.17
2018-10-18T18:24:47.844Z,34.50
2018-10-18T18:27:16.086Z,33.48
2018-10-18T18:29:44.449Z,31.25
2018-10-18T18:32:12.791Z,32.78
2018-10-18T18:34:41.131Z,35.83
2018-10-18T18:37:09.535Z,34.83
2018-10-18T18:39:38.141Z,30.45
2018-10-18T18:42:06.565Z,29.32
2018-10-18T18:44:34.970Z,32.60
2018-10-18T18:47:03.340Z,34.40
2018-10-18T18:49:31.765Z,31.70
2018-10-18T18:52:00.068Z,33.50
2018-10-18T18:54:28.500Z,30.05
2018-10-18T18:56:56.949Z,33.53
2018-10-18T18:59:25.216Z,31.25
2018-10-18T19:01:53.657Z,29.50
2018-10-18T19:04:22.016Z,29.00
2018-10-18T19:06:50.306Z,30.72
2018-10-18T19:09:18.657Z,29.92
2018-10-18T19:11:47.048Z,27.00
2018-10-18T19:14:16.413Z,27.37
2018-10-18T19:16:44.728Z,25.30
2018-10-18T19:19:13.113Z,25.23
2018-10-18T19:21:41.473Z,24.25
2018-10-18T19:24:09.987Z,27.30
2018-10-18T19:26:38.482Z,25.40
2018-10-18T19:29:06.810Z,22.07
2018-10-18T19:31:35.230Z,21.10
2018-10-18T19:34:03.720Z,21.27
2018-10-18T19:36:32.277Z,18.13
2018-10-18T19:39:01.461Z,17.98
2018-10-18T19:41:29.806Z,18.32
2018-10-18T19:43:58.165Z,19.42
2018-10-18T19:46:27.727Z,16.87
2018-10-18T19:48:56.156Z,15.57
2018-10-18T19:51:24.460Z,16.60
2018-10-18T19:53:52.793Z,12.93
2018-10-18T19:56:21.083Z,15.32
2018-10-18T19:58:49.374Z,16.48
2018-10-18T20:01:17.745Z,12.98
2018-10-18T20:03:46.196Z,15.07
2018-10-18T20:06:14.636Z,10.72
2018-10-18T20:08:45.000Z,16.07
2018-10-18T20:11:13.444Z,14.38
2018-10-18T20:13:41.838Z,12.45
2018-10-18T20:16:10.289Z,12.37
2018-10-18T20:18:38.649Z,13.90
2018-10-18T20:21:06.949Z,12.28
2018-10-18T20:23:35.192Z,13.70
2018-10-18T20:26:03.876Z,10.72
2018-10-18T20:28:31.968Z,12.95
2018-10-18T20:31:00.673Z,12.28
2018-10-18T20:33:29.062Z,10.57
2018-10-18T20:35:57.391Z,10.23
2018-10-18T20:38:25.776Z,11.53
2018-10-18T20:40:54.111Z,10.80
2018-10-18T20:43:22.435Z,11.93
2018-10-18T20:45:50.760Z,13.67
2018-10-18T20:48:19.180Z,12.15
2018-10-18T20:50:47.579Z,11.53
2018-10-18T20:53:16.044Z,11.50
2018-10-18T20:55:44.239Z,7.90
2018-10-18T20:58:12.629Z,8.97
2018-10-18T21:00:40.957Z,10.55
2018-10-18T21:03:14.407Z,9.80
2018-10-18T21:05:42.960Z,7.92
2018-10-18T21:08:11.753Z,11.48
2018-10-18T21:10:40.024Z,9.55
2018-10-18T21:13:08.337Z,10.38
2018-10-18T21:15:36.758Z,10.97
2018-10-18T21:18:05.450Z,8.08
2018-10-18T21:20:33.757Z,8.23
2018-10-18T21:23:02.024Z,9.67
2018-10-18T21:25:30.322Z,9.87
2018-10-18T21:27:59.724Z,8.25
2018-10-18T21:30:28.286Z,8.00
2018-10-18T21:32:56.772Z,8.58
2018-10-18T21:35:25.041Z,7.33
2018-10-18T21:37:53.321Z,4.90
2018-10-18T21:40:21.640Z,7.47
2018-10-18T21:42:50.077Z,7.45
2018-10-18T21:45:19.072Z,5.35
2018-10-18T21:47:47.589Z,7.78
2018-10-18T21:50:15.979Z,6.55
2018-10-18T21:52:44.310Z,5.30
2018-10-18T21:55:13.552Z,9.38
2018-10-18T21:57:42.229Z,6.03
2018-10-18T22:00:13.652Z,6.20
2018-10-18T22:02:42.472Z,5.28
2018-10-18T22:05:10.920Z,7.47
2018-10-18T22:07:40.071Z,7.28
2018-10-18T22:10:10.083Z,9.60
2018-10-18T22:12:38.724Z,5.53
2018-10-18T22:15:08.464Z,7.55
2018-10-18T22:17:36.621Z,3.58
2018-10-18T22:20:05.951Z,5.65
2018-10-18T22:22:34.228Z,6.47
2018-10-18T22:25:02.544Z,4.42
2018-10-18T22:27:30.800Z,4.67
2018-10-18T22:29:59.059Z,4.28
2018-10-18T22:32:27.304Z,5.58
2018-10-18T22:34:55.625Z,4.45
2018-10-18T22:37:23.874Z,4.57
2018-10-18T22:39:52.097Z,3.37
2018-10-18T22:42:20.361Z,7.62
2018-10-18T22:44:48.593Z,4.85
2018-10-18T22:47:16.857Z,6.45
2018-10-18T22:49:45.089Z,5.70
2018-10-18T22:52:13.416Z,3.87
2018-10-18T22:54:41.614Z,4.42
2018-10-18T22:57:09.880Z,6.95
2018-10-18T22:59:38.051Z,6.15
2018-10-18T23:02:06.299Z,7.60
2018-10-18T23:04:34.574Z,7.13
2018-10-18T23:07:02.761Z,4.22
2018-10-18T23:09:31.051Z,8.05
2018-10-18T23:11:59.284Z,9.63
2018-10-18T23:14:27.557Z,4.05
2018-10-18T23:16:55.888Z,10.78
2018-10-18T23:19:24.053Z,6.12
2018-10-18T23:21:52.321Z,9.05
2018-10-18T23:24:20.568Z,6.67
2018-10-18T23:26:48.776Z,7.55
2018-10-18T23:29:17.068Z,5.87
2018-10-18T23:31:45.241Z,9.55
2018-10-18T23:34:13.671Z,5.80
2018-10-18T23:36:41.922Z,6.15
2018-10-18T23:39:11.091Z,5.90
2018-10-18T23:41:39.281Z,4.30
2018-10-18T23:44:07.494Z,6.70
2018-10-18T23:46:35.720Z,7.25
2018-10-18T23:49:03.949Z,6.33
2018-10-18T23:51:32.164Z,5.28
2018-10-18T23:54:00.361Z,6.33
2018-10-18T23:56:28.686Z,7.87
2018-10-18T23:58:57.047Z,6.58
